Norfolk — WDG2147 — position and weather

sailwx.info

Track history (hours):
 
Tides and Currents Weather Stations Pressure Air Temp Water Temp Dewpoint Dewpoint Depression Visibility Wind Speed Wind Dir Waves Ship Positions

Norfolk

Owner: Virginia Pilot Boat Corporation, Virginia Beach, VA. More information available from US FCC via Universal Licensing System and Coast Guard Vessel Documentation Center.

Last reported at 2018-Feb-19 21:24 UTC. Time now 2018-Feb-19 21:34 UTC.
Position N 36°54' W 076°05'.

Length 18 m; draft 1.5 m.

Type: Pilot. MMSI: 367512630.

Date/timePositionNaut miles runAvg speedWind from/ knotsBaromVisibWave heightAir tempDewpointWater temp
2018-Feb-19 21:24N 36°54' W 076°05'0 0.0
2018-Feb-19 21:00N 36°54' W 076°05'0 0.0
2018-Feb-19 20:30N 36°54' W 076°05'0 0.0
2018-Feb-19 20:00N 36°54' W 076°05'0 0.0
2018-Feb-19 19:30N 36°54' W 076°05'5 1.4
2018-Feb-19 16:22N 36°59' W 076°05'512.3
2018-Feb-19 16:00N 36°54' W 076°05'0 0.0
2018-Feb-19 15:30N 36°54' W 076°05'0 0.0
2018-Feb-19 14:58N 36°54' W 076°05'0 0.0
2018-Feb-19 14:30N 36°54' W 076°05'611.7
2018-Feb-19 13:59N 36°55' W 075°58'511.7
2018-Feb-19 13:30N 36°56' W 076°05'1 2.5
2018-Feb-19 12:59N 36°54' W 076°05'0 0.0
2018-Feb-19 12:28N 36°54' W 076°05'0 0.1
2018-Feb-19 11:13N 36°54' W 076°06'1 1.0
2018-Feb-19 10:10N 36°55' W 076°05'1 1.0
2018-Feb-19 09:12N 36°54' W 076°05'0 0.0
2018-Feb-19 01:27N 36°54' W 076°05'1614.9
2018-Feb-19 00:22N 37°11' W 076°06'1023.5
2018-Feb-18 23:57N 37°01' W 076°04'6 6.1
2018-Feb-18 22:54N 36°54' W 076°05'0 0.0
2018-Feb-18 22:30N 36°54' W 076°05'0 0.0
2018-Feb-18 21:59N 36°54' W 076°05'0 0.0
2018-Feb-18 21:30N 36°54' W 076°05'711.2
2018-Feb-18 20:51N 36°55' W 075°56'513.8
2018-Feb-18 20:30N 36°56' W 076°02'1 1.4
2018-Feb-18 20:00N 36°57' W 076°01'4 7.4
2018-Feb-18 19:28N 36°57' W 075°56'816.4
2018-Feb-18 19:00N 36°54' W 076°05'0 0.0
2018-Feb-18 18:30N 36°54' W 076°05'0 0.0
2018-Feb-18 17:59N 36°54' W 076°05'0 0.0
2018-Feb-18 17:30N 36°54' W 076°05'0 0.0
2018-Feb-18 17:00N 36°54' W 076°05'0 0.0
2018-Feb-18 16:28N 36°54' W 076°05'0 0.0
2018-Feb-18 16:00N 36°54' W 076°05'0 0.0
2018-Feb-18 15:29N 36°54' W 076°05'0 0.0
2018-Feb-18 15:00N 36°54' W 076°05'0 0.0
2018-Feb-18 14:30N 36°54' W 076°05'0 0.0
2018-Feb-18 13:54N 36°54' W 076°05'4 9.8
2018-Feb-18 13:30N 36°57' W 076°02'510.4
2018-Feb-18 12:59N 36°55' W 075°55'817.0
2018-Feb-18 12:30N 36°54' W 076°05'0 0.1
2018-Feb-18 12:00N 36°54' W 076°05'0 0.0
2018-Feb-18 07:44N 36°54' W 076°05'817.5
2018-Feb-18 07:17N 36°56' W 075°56'8 2.5
2018-Feb-18 04:05N 36°54' W 076°05'2 2.3
2018-Feb-18 03:21N 36°56' W 076°04'3 0.4
2018-Feb-17 21:06N 36°58' W 076°05'224.6
2018-Feb-17 21:00N 36°56' W 076°05'2 3.0
2018-Feb-17 20:30N 36°54' W 076°05'710.9
2018-Feb-17 19:51N 36°57' W 075°57'3 7.8
2018-Feb-17 19:28N 36°56' W 076°01'4 8.7
2018-Feb-17 19:00N 36°54' W 076°05'0 0.0
2018-Feb-17 18:30N 36°54' W 076°05'0 0.0
2018-Feb-17 18:00N 36°54' W 076°05'0 0.0
2018-Feb-17 17:30N 36°54' W 076°05'0 0.0
2018-Feb-17 16:58N 36°54' W 076°05'0 0.0
2018-Feb-17 16:30N 36°54' W 076°05'0 0.0
2018-Feb-17 16:00N 36°54' W 076°05'0 0.0
2018-Feb-17 15:29N 36°54' W 076°05'0 0.0
2018-Feb-17 15:00N 36°54' W 076°05'0 0.0
2018-Feb-17 14:30N 36°54' W 076°05'0 0.0
2018-Feb-17 14:00N 36°54' W 076°05'0 0.0
2018-Feb-17 13:30N 36°54' W 076°05'0 0.0
2018-Feb-17 13:00N 36°54' W 076°05'0 0.0
2018-Feb-17 12:29N 36°54' W 076°05'0 0.0
2018-Feb-17 12:00N 36°54' W 076°05'0 0.0
2018-Feb-17 08:03N 36°54' W 076°06'0 0.3
2018-Feb-17 07:37N 36°54' W 076°05'0 0.0
2018-Feb-17 05:24N 36°54' W 076°05'0 0.0
2018-Feb-16 22:39N 36°54' W 076°05'0 0.1
2018-Feb-16 22:27N 36°54' W 076°05'0 0.0
2018-Feb-16 21:59N 36°54' W 076°05'0 0.0
2018-Feb-16 21:30N 36°54' W 076°05'0 0.0
2018-Feb-16 21:00N 36°54' W 076°05'0 0.2
2018-Feb-16 20:30N 36°54' W 076°06'915.2
2018-Feb-16 19:56N 36°55' W 075°55'819.6
2018-Feb-16 19:30N 36°55' W 076°05'1 1.3
2018-Feb-16 19:00N 36°54' W 076°05'3 6.2
2018-Feb-16 18:29N 36°56' W 076°02'3 5.8
2018-Feb-16 17:59N 36°56' W 075°58'612.0
2018-Feb-16 17:30N 36°54' W 076°05'0 0.1
2018-Feb-16 16:54N 36°54' W 076°05'5 9.7
2018-Feb-16 16:25N 36°58' W 076°01'6 2.6
2018-Feb-16 14:06N 36°55' W 075°54'619.1
2018-Feb-16 13:47N 36°56' W 076°02'311.4
2018-Feb-16 13:28N 36°54' W 076°05'0 0.0
2018-Feb-16 12:55N 36°54' W 076°05'0 0.0
2018-Feb-16 12:27N 36°54' W 076°05'0 0.0
2018-Feb-16 12:00N 36°54' W 076°05'2 1.4
2018-Feb-16 10:43N 36°56' W 076°04'2 1.0
2018-Feb-16 08:55N 36°54' W 076°05'0 0.0
2018-Feb-15 22:42N 36°54' W 076°05'0 0.0
2018-Feb-15 22:26N 36°54' W 076°05'0 0.0
2018-Feb-15 19:22N 36°54' W 076°05'9 7.2
2018-Feb-15 18:05N 37°04' W 076°05'624.0
2018-Feb-15 17:51N 36°58' W 076°05'3 8.7
2018-Feb-15 17:27N 36°54' W 076°05'0 0.1
2018-Feb-15 16:53N 36°54' W 076°05'0 0.0
2018-Feb-15 13:33N 36°54' W 076°05'0 0.0
2018-Feb-15 13:23N 36°54' W 076°05'0 0.1
2018-Feb-15 12:10N 36°54' W 076°05'318.4
2018-Feb-15 12:00N 36°57' W 076°03'1 0.1
2018-Feb-14 22:38N 36°57' W 076°02'0 0.5
2018-Feb-14 22:29N 36°57' W 076°02'5 9.8
2018-Feb-14 21:57N 36°56' W 075°56'8 7.0
2018-Feb-14 20:51N 36°54' W 076°05'0 0.1
2018-Feb-14 20:30N 36°54' W 076°05'816.8
2018-Feb-14 20:00N 36°55' W 075°55'8 2.7
2018-Feb-14 16:53N 36°54' W 076°05'0 0.0
2018-Feb-14 16:23N 36°54' W 076°05'0 0.0
2018-Feb-14 16:00N 36°54' W 076°05'0 0.0
2018-Feb-14 15:30N 36°54' W 076°05'0 0.0
2018-Feb-14 15:00N 36°54' W 076°05'0 0.0
2018-Feb-14 14:30N 36°54' W 076°05'0 0.0
2018-Feb-14 13:50N 36°54' W 076°05'0 0.0
2018-Feb-14 13:30N 36°54' W 076°05'0 0.0
2018-Feb-14 12:59N 36°54' W 076°05'0 0.0
2018-Feb-14 12:30N 36°54' W 076°05'0 0.0
2018-Feb-13 22:45N 36°54' W 076°05'0 0.0
2018-Feb-13 22:30N 36°54' W 076°05'0 0.0
2018-Feb-13 22:00N 36°54' W 076°05'0 0.0
2018-Feb-13 21:30N 36°54' W 076°05'0 0.0
2018-Feb-13 20:59N 36°54' W 076°05'0 0.0
2018-Feb-13 20:29N 36°54' W 076°05'0 0.0
2018-Feb-13 20:00N 36°54' W 076°05'0 0.0
2018-Feb-13 19:30N 36°54' W 076°05'0 0.0
2018-Feb-13 19:00N 36°54' W 076°05'0 0.0
2018-Feb-13 18:30N 36°54' W 076°05'0 0.0
2018-Feb-13 17:59N 36°54' W 076°05'0 0.0
2018-Feb-13 17:30N 36°54' W 076°05'0 0.0
2018-Feb-13 17:00N 36°54' W 076°05'0 0.0
2018-Feb-13 16:28N 36°54' W 076°05'0 0.0
2018-Feb-13 15:54N 36°54' W 076°05'0 0.0
2018-Feb-13 15:28N 36°54' W 076°05'0 0.0
2018-Feb-13 14:58N 36°54' W 076°05'0 0.0
2018-Feb-13 14:30N 36°54' W 076°05'0 0.0
2018-Feb-13 13:59N 36°54' W 076°05'0 0.0
2018-Feb-13 13:30N 36°54' W 076°05'0 0.0
2018-Feb-13 12:59N 36°54' W 076°05'0 0.1
2018-Feb-13 12:29N 36°54' W 076°05'0 0.0
2018-Feb-13 08:34N 36°54' W 076°06'119.1
2018-Feb-13 08:29N 36°56' W 076°04'1610.0
2018-Feb-13 06:53N 37°11' W 076°06'410.6
2018-Feb-13 06:31N 37°08' W 076°05'1223.6
2018-Feb-13 06:00N 36°55' W 076°05'1 1.5
2018-Feb-13 05:18N 36°54' W 076°05'0 0.0
2018-Feb-12 21:55N 36°54' W 076°05'4 0.6
2018-Feb-12 15:49N 36°58' W 076°05'411.1
2018-Feb-12 15:29N 36°54' W 076°05'0 0.0
2018-Feb-12 15:00N 36°54' W 076°05'0 0.1
2018-Feb-12 14:30N 36°54' W 076°05'3 6.2
2018-Feb-12 14:00N 36°56' W 076°02'5 9.8
2018-Feb-12 13:29N 36°56' W 075°56'815.0
2018-Feb-12 12:59N 36°54' W 076°05'0 0.0
2018-Feb-12 12:30N 36°54' W 076°05'0 0.0
2018-Feb-12 09:17N 36°54' W 076°05'1 1.6
2018-Feb-12 08:24N 36°56' W 076°04'0 0.0
2018-Feb-12 00:47N 36°56' W 076°04'2 1.1
2018-Feb-11 22:39N 36°58' W 076°05'422.5
2018-Feb-11 22:29N 36°54' W 076°06'0 0.2
2018-Feb-11 21:52N 36°54' W 076°05'0 0.0
2018-Feb-11 21:28N 36°54' W 076°05'12 5.6
2018-Feb-11 19:22N 37°06' W 076°06'14 9.5
2018-Feb-11 17:51N 36°55' W 075°55'616.3
2018-Feb-11 17:30N 36°56' W 076°01'4 6.7
2018-Feb-11 16:57N 36°54' W 076°05'0 0.0
2018-Feb-11 16:30N 36°54' W 076°05'0 0.0
2018-Feb-11 16:00N 36°54' W 076°05'0 0.0
2018-Feb-11 15:29N 36°54' W 076°05'0 0.0
2018-Feb-11 14:57N 36°54' W 076°05'0 0.0
2018-Feb-11 14:30N 36°54' W 076°05'0 0.0
2018-Feb-11 14:00N 36°54' W 076°05'0 0.0
2018-Feb-11 13:29N 36°54' W 076°05'0 0.0
2018-Feb-11 12:58N 36°54' W 076°05'0 0.0
2018-Feb-11 12:30N 36°54' W 076°05'0 0.1
2018-Feb-11 12:00N 36°54' W 076°05'4 6.6
2018-Feb-11 11:25N 36°57' W 076°02'4 1.8
2018-Feb-11 09:14N 36°54' W 076°05'0 0.0
2018-Feb-11 06:59N 36°54' W 076°05'1 0.8
2018-Feb-11 05:41N 36°55' W 076°05'1 0.4
2018-Feb-11 03:06N 36°54' W 076°05'0 0.0
2018-Feb-10 23:28N 36°54' W 076°05'2 2.8
2018-Feb-10 22:38N 36°56' W 076°03'218.5
2018-Feb-10 22:30N 36°54' W 076°06'0 0.2
2018-Feb-10 22:00N 36°54' W 076°05'9 4.7
2018-Feb-10 20:10N 37°03' W 076°04'624.8
2018-Feb-10 19:56N 36°57' W 076°05'5 2.6
2018-Feb-10 17:53N 37°02' W 076°04'821.4
2018-Feb-10 17:30N 36°54' W 076°05'0 0.0
2018-Feb-10 17:00N 36°54' W 076°05'0 0.0
2018-Feb-10 16:30N 36°54' W 076°05'0 0.0
2018-Feb-10 16:00N 36°54' W 076°05'0 0.0
2018-Feb-10 15:28N 36°54' W 076°05'0 0.0
2018-Feb-10 15:00N 36°54' W 076°05'0 0.0
2018-Feb-10 14:30N 36°54' W 076°05'0 0.0
2018-Feb-10 14:00N 36°54' W 076°05'0 0.2
2018-Feb-10 13:30N 36°54' W 076°06'4 6.8
2018-Feb-10 12:54N 36°56' W 076°01'410.5
2018-Feb-10 12:30N 36°54' W 076°05'0 0.0
2018-Feb-10 12:00N 36°54' W 076°05'0 0.0
2018-Feb-10 09:43N 36°54' W 076°05'0 0.0
2018-Feb-10 09:24N 36°54' W 076°05'0 0.0
2018-Feb-10 08:58N 36°54' W 076°05'0 0.0
2018-Feb-10 08:29N 36°54' W 076°05'811.6
2018-Feb-10 07:49N 36°56' W 075°56'714.5
2018-Feb-10 07:19N 36°55' W 076°05'1 0.3
2018-Feb-10 03:35N 36°54' W 076°05'113.7
2018-Feb-10 03:30N 36°55' W 076°05'1 0.9
2018-Feb-10 02:47N 36°55' W 076°05'1 0.2
2018-Feb-09 22:34N 36°54' W 076°05'  
Track history (hours):
 
Tides and Currents Weather Stations Pressure Air Temp Water Temp Dewpoint Dewpoint Depression Visibility Wind Speed Wind Dir Waves Ship Positions

Norfolk

Owner: Virginia Pilot Boat Corporation, Virginia Beach, VA. More information available from US FCC via Universal Licensing System and Coast Guard Vessel Documentation Center.

Last reported at 2018-Feb-19 21:24 UTC. Time now 2018-Feb-19 21:34 UTC.
Position N 36°54' W 076°05'.

Length 18 m; draft 1.5 m.

Type: Pilot. MMSI: 367512630.

Date/timePositionNaut miles runAvg speedWind from/ knotsBaromVisibWave heightAir tempDewpointWater temp
2018-Feb-19 21:24N 36°54' W 076°05'0 0.0
2018-Feb-19 21:00N 36°54' W 076°05'0 0.0
2018-Feb-19 20:30N 36°54' W 076°05'0 0.0
2018-Feb-19 20:00N 36°54' W 076°05'0 0.0
2018-Feb-19 19:30N 36°54' W 076°05'5 1.4
2018-Feb-19 16:22N 36°59' W 076°05'512.3
2018-Feb-19 16:00N 36°54' W 076°05'0 0.0
2018-Feb-19 15:30N 36°54' W 076°05'0 0.0
2018-Feb-19 14:58N 36°54' W 076°05'0 0.0
2018-Feb-19 14:30N 36°54' W 076°05'611.7
2018-Feb-19 13:59N 36°55' W 075°58'511.7
2018-Feb-19 13:30N 36°56' W 076°05'1 2.5
2018-Feb-19 12:59N 36°54' W 076°05'0 0.0
2018-Feb-19 12:28N 36°54' W 076°05'0 0.1
2018-Feb-19 11:13N 36°54' W 076°06'1 1.0
2018-Feb-19 10:10N 36°55' W 076°05'1 1.0
2018-Feb-19 09:12N 36°54' W 076°05'0 0.0
2018-Feb-19 01:27N 36°54' W 076°05'1614.9
2018-Feb-19 00:22N 37°11' W 076°06'1023.5
2018-Feb-18 23:57N 37°01' W 076°04'6 6.1
2018-Feb-18 22:54N 36°54' W 076°05'0 0.0
2018-Feb-18 22:30N 36°54' W 076°05'0 0.0
2018-Feb-18 21:59N 36°54' W 076°05'0 0.0
2018-Feb-18 21:30N 36°54' W 076°05'711.2
2018-Feb-18 20:51N 36°55' W 075°56'513.8
2018-Feb-18 20:30N 36°56' W 076°02'1 1.4
2018-Feb-18 20:00N 36°57' W 076°01'4 7.4
2018-Feb-18 19:28N 36°57' W 075°56'816.4
2018-Feb-18 19:00N 36°54' W 076°05'0 0.0
2018-Feb-18 18:30N 36°54' W 076°05'0 0.0
2018-Feb-18 17:59N 36°54' W 076°05'0 0.0
2018-Feb-18 17:30N 36°54' W 076°05'0 0.0
2018-Feb-18 17:00N 36°54' W 076°05'0 0.0
2018-Feb-18 16:28N 36°54' W 076°05'0 0.0
2018-Feb-18 16:00N 36°54' W 076°05'0 0.0
2018-Feb-18 15:29N 36°54' W 076°05'0 0.0
2018-Feb-18 15:00N 36°54' W 076°05'0 0.0
2018-Feb-18 14:30N 36°54' W 076°05'0 0.0
2018-Feb-18 13:54N 36°54' W 076°05'4 9.8
2018-Feb-18 13:30N 36°57' W 076°02'510.4
2018-Feb-18 12:59N 36°55' W 075°55'817.0
2018-Feb-18 12:30N 36°54' W 076°05'0 0.1
2018-Feb-18 12:00N 36°54' W 076°05'0 0.0
2018-Feb-18 07:44N 36°54' W 076°05'817.5
2018-Feb-18 07:17N 36°56' W 075°56'8 2.5
2018-Feb-18 04:05N 36°54' W 076°05'2 2.3
2018-Feb-18 03:21N 36°56' W 076°04'3 0.4
2018-Feb-17 21:06N 36°58' W 076°05'224.6
2018-Feb-17 21:00N 36°56' W 076°05'2 3.0
2018-Feb-17 20:30N 36°54' W 076°05'710.9
2018-Feb-17 19:51N 36°57' W 075°57'3 7.8
2018-Feb-17 19:28N 36°56' W 076°01'4 8.7
2018-Feb-17 19:00N 36°54' W 076°05'0 0.0
2018-Feb-17 18:30N 36°54' W 076°05'0 0.0
2018-Feb-17 18:00N 36°54' W 076°05'0 0.0
2018-Feb-17 17:30N 36°54' W 076°05'0 0.0
2018-Feb-17 16:58N 36°54' W 076°05'0 0.0
2018-Feb-17 16:30N 36°54' W 076°05'0 0.0
2018-Feb-17 16:00N 36°54' W 076°05'0 0.0
2018-Feb-17 15:29N 36°54' W 076°05'0 0.0
2018-Feb-17 15:00N 36°54' W 076°05'0 0.0
2018-Feb-17 14:30N 36°54' W 076°05'0 0.0
2018-Feb-17 14:00N 36°54' W 076°05'0 0.0
2018-Feb-17 13:30N 36°54' W 076°05'0 0.0
2018-Feb-17 13:00N 36°54' W 076°05'0 0.0
2018-Feb-17 12:29N 36°54' W 076°05'0 0.0
2018-Feb-17 12:00N 36°54' W 076°05'0 0.0
2018-Feb-17 08:03N 36°54' W 076°06'0 0.3
2018-Feb-17 07:37N 36°54' W 076°05'0 0.0
2018-Feb-17 05:24N 36°54' W 076°05'0 0.0
2018-Feb-16 22:39N 36°54' W 076°05'0 0.1
2018-Feb-16 22:27N 36°54' W 076°05'0 0.0
2018-Feb-16 21:59N 36°54' W 076°05'0 0.0
2018-Feb-16 21:30N 36°54' W 076°05'0 0.0
2018-Feb-16 21:00N 36°54' W 076°05'0 0.2
2018-Feb-16 20:30N 36°54' W 076°06'915.2
2018-Feb-16 19:56N 36°55' W 075°55'819.6
2018-Feb-16 19:30N 36°55' W 076°05'1 1.3
2018-Feb-16 19:00N 36°54' W 076°05'3 6.2
2018-Feb-16 18:29N 36°56' W 076°02'3 5.8
2018-Feb-16 17:59N 36°56' W 075°58'612.0
2018-Feb-16 17:30N 36°54' W 076°05'0 0.1
2018-Feb-16 16:54N 36°54' W 076°05'5 9.7
2018-Feb-16 16:25N 36°58' W 076°01'6 2.6
2018-Feb-16 14:06N 36°55' W 075°54'619.1
2018-Feb-16 13:47N 36°56' W 076°02'311.4
2018-Feb-16 13:28N 36°54' W 076°05'0 0.0
2018-Feb-16 12:55N 36°54' W 076°05'0 0.0
2018-Feb-16 12:27N 36°54' W 076°05'0 0.0
2018-Feb-16 12:00N 36°54' W 076°05'2 1.4
2018-Feb-16 10:43N 36°56' W 076°04'2 1.0
2018-Feb-16 08:55N 36°54' W 076°05'0 0.0
2018-Feb-15 22:42N 36°54' W 076°05'0 0.0
2018-Feb-15 22:26N 36°54' W 076°05'0 0.0
2018-Feb-15 19:22N 36°54' W 076°05'9 7.2
2018-Feb-15 18:05N 37°04' W 076°05'624.0
2018-Feb-15 17:51N 36°58' W 076°05'3 8.7
2018-Feb-15 17:27N 36°54' W 076°05'0 0.1
2018-Feb-15 16:53N 36°54' W 076°05'0 0.0
2018-Feb-15 13:33N 36°54' W 076°05'0 0.0
2018-Feb-15 13:23N 36°54' W 076°05'0 0.1
2018-Feb-15 12:10N 36°54' W 076°05'318.4
2018-Feb-15 12:00N 36°57' W 076°03'1 0.1
2018-Feb-14 22:38N 36°57' W 076°02'0 0.5
2018-Feb-14 22:29N 36°57' W 076°02'5 9.8
2018-Feb-14 21:57N 36°56' W 075°56'8 7.0
2018-Feb-14 20:51N 36°54' W 076°05'0 0.1
2018-Feb-14 20:30N 36°54' W 076°05'816.8
2018-Feb-14 20:00N 36°55' W 075°55'8 2.7
2018-Feb-14 16:53N 36°54' W 076°05'0 0.0
2018-Feb-14 16:23N 36°54' W 076°05'0 0.0
2018-Feb-14 16:00N 36°54' W 076°05'0 0.0
2018-Feb-14 15:30N 36°54' W 076°05'0 0.0
2018-Feb-14 15:00N 36°54' W 076°05'0 0.0
2018-Feb-14 14:30N 36°54' W 076°05'0 0.0
2018-Feb-14 13:50N 36°54' W 076°05'0 0.0
2018-Feb-14 13:30N 36°54' W 076°05'0 0.0
2018-Feb-14 12:59N 36°54' W 076°05'0 0.0
2018-Feb-14 12:30N 36°54' W 076°05'0 0.0
2018-Feb-13 22:45N 36°54' W 076°05'0 0.0
2018-Feb-13 22:30N 36°54' W 076°05'0 0.0
2018-Feb-13 22:00N 36°54' W 076°05'0 0.0
2018-Feb-13 21:30N 36°54' W 076°05'0 0.0
2018-Feb-13 20:59N 36°54' W 076°05'0 0.0
2018-Feb-13 20:29N 36°54' W 076°05'0 0.0
2018-Feb-13 20:00N 36°54' W 076°05'0 0.0
2018-Feb-13 19:30N 36°54' W 076°05'0 0.0
2018-Feb-13 19:00N 36°54' W 076°05'0 0.0
2018-Feb-13 18:30N 36°54' W 076°05'0 0.0
2018-Feb-13 17:59N 36°54' W 076°05'0 0.0
2018-Feb-13 17:30N 36°54' W 076°05'0 0.0
2018-Feb-13 17:00N 36°54' W 076°05'0 0.0
2018-Feb-13 16:28N 36°54' W 076°05'0 0.0
2018-Feb-13 15:54N 36°54' W 076°05'0 0.0
2018-Feb-13 15:28N 36°54' W 076°05'0 0.0
2018-Feb-13 14:58N 36°54' W 076°05'0 0.0
2018-Feb-13 14:30N 36°54' W 076°05'0 0.0
2018-Feb-13 13:59N 36°54' W 076°05'0 0.0
2018-Feb-13 13:30N 36°54' W 076°05'0 0.0
2018-Feb-13 12:59N 36°54' W 076°05'0 0.1
2018-Feb-13 12:29N 36°54' W 076°05'0 0.0
2018-Feb-13 08:34N 36°54' W 076°06'119.1
2018-Feb-13 08:29N 36°56' W 076°04'1610.0
2018-Feb-13 06:53N 37°11' W 076°06'410.6
2018-Feb-13 06:31N 37°08' W 076°05'1223.6
2018-Feb-13 06:00N 36°55' W 076°05'1 1.5
2018-Feb-13 05:18N 36°54' W 076°05'0 0.0
2018-Feb-12 21:55N 36°54' W 076°05'4 0.6
2018-Feb-12 15:49N 36°58' W 076°05'411.1
2018-Feb-12 15:29N 36°54' W 076°05'0 0.0
2018-Feb-12 15:00N 36°54' W 076°05'0 0.1
2018-Feb-12 14:30N 36°54' W 076°05'3 6.2
2018-Feb-12 14:00N 36°56' W 076°02'5 9.8
2018-Feb-12 13:29N 36°56' W 075°56'815.0
2018-Feb-12 12:59N 36°54' W 076°05'0 0.0
2018-Feb-12 12:30N 36°54' W 076°05'0 0.0
2018-Feb-12 09:17N 36°54' W 076°05'1 1.6
2018-Feb-12 08:24N 36°56' W 076°04'0 0.0
2018-Feb-12 00:47N 36°56' W 076°04'2 1.1
2018-Feb-11 22:39N 36°58' W 076°05'422.5
2018-Feb-11 22:29N 36°54' W 076°06'0 0.2
2018-Feb-11 21:52N 36°54' W 076°05'0 0.0
2018-Feb-11 21:28N 36°54' W 076°05'12 5.6
2018-Feb-11 19:22N 37°06' W 076°06'14 9.5
2018-Feb-11 17:51N 36°55' W 075°55'616.3
2018-Feb-11 17:30N 36°56' W 076°01'4 6.7
2018-Feb-11 16:57N 36°54' W 076°05'0 0.0
2018-Feb-11 16:30N 36°54' W 076°05'0 0.0
2018-Feb-11 16:00N 36°54' W 076°05'0 0.0
2018-Feb-11 15:29N 36°54' W 076°05'0 0.0
2018-Feb-11 14:57N 36°54' W 076°05'0 0.0
2018-Feb-11 14:30N 36°54' W 076°05'0 0.0
2018-Feb-11 14:00N 36°54' W 076°05'0 0.0
2018-Feb-11 13:29N 36°54' W 076°05'0 0.0
2018-Feb-11 12:58N 36°54' W 076°05'0 0.0
2018-Feb-11 12:30N 36°54' W 076°05'0 0.1
2018-Feb-11 12:00N 36°54' W 076°05'4 6.6
2018-Feb-11 11:25N 36°57' W 076°02'4 1.8
2018-Feb-11 09:14N 36°54' W 076°05'0 0.0
2018-Feb-11 06:59N 36°54' W 076°05'1 0.8
2018-Feb-11 05:41N 36°55' W 076°05'1 0.4
2018-Feb-11 03:06N 36°54' W 076°05'0 0.0
2018-Feb-10 23:28N 36°54' W 076°05'2 2.8
2018-Feb-10 22:38N 36°56' W 076°03'218.5
2018-Feb-10 22:30N 36°54' W 076°06'0 0.2
2018-Feb-10 22:00N 36°54' W 076°05'9 4.7
2018-Feb-10 20:10N 37°03' W 076°04'624.8
2018-Feb-10 19:56N 36°57' W 076°05'5 2.6
2018-Feb-10 17:53N 37°02' W 076°04'821.4
2018-Feb-10 17:30N 36°54' W 076°05'0 0.0
2018-Feb-10 17:00N 36°54' W 076°05'0 0.0
2018-Feb-10 16:30N 36°54' W 076°05'0 0.0
2018-Feb-10 16:00N 36°54' W 076°05'0 0.0
2018-Feb-10 15:28N 36°54' W 076°05'0 0.0
2018-Feb-10 15:00N 36°54' W 076°05'0 0.0
2018-Feb-10 14:30N 36°54' W 076°05'0 0.0
2018-Feb-10 14:00N 36°54' W 076°05'0 0.2
2018-Feb-10 13:30N 36°54' W 076°06'4 6.8
2018-Feb-10 12:54N 36°56' W 076°01'410.5
2018-Feb-10 12:30N 36°54' W 076°05'0 0.0
2018-Feb-10 12:00N 36°54' W 076°05'0 0.0
2018-Feb-10 09:43N 36°54' W 076°05'0 0.0
2018-Feb-10 09:24N 36°54' W 076°05'0 0.0
2018-Feb-10 08:58N 36°54' W 076°05'0 0.0
2018-Feb-10 08:29N 36°54' W 076°05'811.6
2018-Feb-10 07:49N 36°56' W 075°56'714.5
2018-Feb-10 07:19N 36°55' W 076°05'1 0.3
2018-Feb-10 03:35N 36°54' W 076°05'113.7
2018-Feb-10 03:30N 36°55' W 076°05'1 0.9
2018-Feb-10 02:47N 36°55' W 076°05'1 0.2
2018-Feb-09 22:34N 36°54' W 076°05'  

Dump ship's entire track history